sensor_id;sensor_type;location;lat;lon;timestamp;temperature;humidity
12853;DHT22;6495;51.808;7.478;2022-09-30T00:01:39;9.20;99.90
12853;DHT22;6495;51.808;7.478;2022-09-30T00:04:13;9.20;99.90
12853;DHT22;6495;51.808;7.478;2022-09-30T00:06:42;9.10;99.90
12853;DHT22;6495;51.808;7.478;2022-09-30T00:09:11;9.10;99.90
12853;DHT22;6495;51.808;7.478;2022-09-30T00:11:40;9.00;99.90
12853;DHT22;6495;51.808;7.478;2022-09-30T00:14:13;9.00;99.90
12853;DHT22;6495;51.808;7.478;2022-09-30T00:16:43;9.00;99.90
12853;DHT22;6495;51.808;7.478;2022-09-30T00:19:12;9.00;99.90
12853;DHT22;6495;51.808;7.478;2022-09-30T00:21:41;9.00;99.90
12853;DHT22;6495;51.808;7.478;2022-09-30T00:24:09;9.00;99.90
12853;DHT22;6495;51.808;7.478;2022-09-30T00:26:37;9.00;99.90
12853;DHT22;6495;51.808;7.478;2022-09-30T00:29:05;9.00;99.90
12853;DHT22;6495;51.808;7.478;2022-09-30T00:31:35;9.00;99.90
12853;DHT22;6495;51.808;7.478;2022-09-30T00:34:03;8.90;99.90
12853;DHT22;6495;51.808;7.478;2022-09-30T00:36:37;8.90;99.90
12853;DHT22;6495;51.808;7.478;2022-09-30T00:39:11;8.90;99.90
12853;DHT22;6495;51.808;7.478;2022-09-30T00:41:41;8.90;99.90
12853;DHT22;6495;51.808;7.478;2022-09-30T00:47:39;8.80;99.90
12853;DHT22;6495;51.808;7.478;2022-09-30T00:50:27;8.80;99.90
12853;DHT22;6495;51.808;7.478;2022-09-30T00:53:08;8.80;99.90
12853;DHT22;6495;51.808;7.478;2022-09-30T00:55:45;8.80;99.90
12853;DHT22;6495;51.808;7.478;2022-09-30T00:58:22;8.80;99.90
12853;DHT22;6495;51.808;7.478;2022-09-30T01:00:55;8.80;99.90
12853;DHT22;6495;51.808;7.478;2022-09-30T01:03:25;8.80;99.90
12853;DHT22;6495;51.808;7.478;2022-09-30T01:05:55;8.80;99.90
12853;DHT22;6495;51.808;7.478;2022-09-30T01:08:23;8.80;99.90
12853;DHT22;6495;51.808;7.478;2022-09-30T01:10:54;8.80;99.90
12853;DHT22;6495;51.808;7.478;2022-09-30T01:13:24;8.80;99.90
12853;DHT22;6495;51.808;7.478;2022-09-30T01:16:04;8.80;99.90
12853;DHT22;6495;51.808;7.478;2022-09-30T01:18:56;8.80;99.90
12853;DHT22;6495;51.808;7.478;2022-09-30T01:22:05;8.80;99.90
12853;DHT22;6495;51.808;7.478;2022-09-30T01:28:43;8.70;99.90
12853;DHT22;6495;51.808;7.478;2022-09-30T01:31:48;8.70;99.90
12853;DHT22;6495;51.808;7.478;2022-09-30T01:34:33;8.70;99.90
12853;DHT22;6495;51.808;7.478;2022-09-30T01:37:12;8.70;99.90
12853;DHT22;6495;51.808;7.478;2022-09-30T01:39:52;8.70;99.90
12853;DHT22;6495;51.808;7.478;2022-09-30T01:42:35;8.70;99.90
12853;DHT22;6495;51.808;7.478;2022-09-30T01:45:12;8.60;99.90
12853;DHT22;6495;51.808;7.478;2022-09-30T01:47:49;8.60;99.90
12853;DHT22;6495;51.808;7.478;2022-09-30T01:50:26;8.60;99.90
12853;DHT22;6495;51.808;7.478;2022-09-30T01:53:07;8.60;99.90
12853;DHT22;6495;51.808;7.478;2022-09-30T01:55:47;8.60;99.90
12853;DHT22;6495;51.808;7.478;2022-09-30T01:58:26;8.60;99.90
12853;DHT22;6495;51.808;7.478;2022-09-30T02:01:07;8.60;99.90
12853;DHT22;6495;51.808;7.478;2022-09-30T02:03:46;8.60;99.90
12853;DHT22;6495;51.808;7.478;2022-09-30T02:06:20;8.60;99.90
12853;DHT22;6495;51.808;7.478;2022-09-30T02:08:54;8.60;99.90
12853;DHT22;6495;51.808;7.478;2022-09-30T02:11:31;8.50;99.90
12853;DHT22;6495;51.808;7.478;2022-09-30T02:14:04;8.50;99.90
12853;DHT22;6495;51.808;7.478;2022-09-30T02:16:38;8.50;99.90
12853;DHT22;6495;51.808;7.478;2022-09-30T02:19:17;8.50;99.90
12853;DHT22;6495;51.808;7.478;2022-09-30T02:21:51;8.40;99.90
12853;DHT22;6495;51.808;7.478;2022-09-30T02:24:27;8.40;99.90
12853;DHT22;6495;51.808;7.478;2022-09-30T02:27:04;8.40;99.90
12853;DHT22;6495;51.808;7.478;2022-09-30T02:29:40;8.40;99.90
12853;DHT22;6495;51.808;7.478;2022-09-30T02:32:17;8.40;99.90
12853;DHT22;6495;51.808;7.478;2022-09-30T02:34:55;8.40;99.90
12853;DHT22;6495;51.808;7.478;2022-09-30T02:37:31;8.30;99.90
12853;DHT22;6495;51.808;7.478;2022-09-30T02:40:05;8.30;99.90
12853;DHT22;6495;51.808;7.478;2022-09-30T02:42:37;8.30;99.90
12853;DHT22;6495;51.808;7.478;2022-09-30T02:45:09;8.30;99.90
12853;DHT22;6495;51.808;7.478;2022-09-30T02:47:50;8.30;99.90
12853;DHT22;6495;51.808;7.478;2022-09-30T02:50:30;8.20;99.90
12853;DHT22;6495;51.808;7.478;2022-09-30T02:53:12;8.20;99.90
12853;DHT22;6495;51.808;7.478;2022-09-30T02:56:05;8.20;99.90
12853;DHT22;6495;51.808;7.478;2022-09-30T02:58:41;8.20;99.90
12853;DHT22;6495;51.808;7.478;2022-09-30T03:01:12;8.10;99.90
12853;DHT22;6495;51.808;7.478;2022-09-30T03:03:46;8.10;99.90
12853;DHT22;6495;51.808;7.478;2022-09-30T03:06:19;8.10;99.90
12853;DHT22;6495;51.808;7.478;2022-09-30T03:08:47;8.10;99.90
12853;DHT22;6495;51.808;7.478;2022-09-30T03:11:17;8.00;99.90
12853;DHT22;6495;51.808;7.478;2022-09-30T03:14:16;8.00;99.90
12853;DHT22;6495;51.808;7.478;2022-09-30T03:17:09;8.00;99.90
12853;DHT22;6495;51.808;7.478;2022-09-30T03:20:12;8.00;99.90
12853;DHT22;6495;51.808;7.478;2022-09-30T03:23:08;8.00;99.90
12853;DHT22;6495;51.808;7.478;2022-09-30T03:26:17;7.90;99.90
12853;DHT22;6495;51.808;7.478;2022-09-30T03:29:00;7.90;99.90
12853;DHT22;6495;51.808;7.478;2022-09-30T03:31:40;7.90;99.90
12853;DHT22;6495;51.808;7.478;2022-09-30T03:34:19;7.80;99.90
12853;DHT22;6495;51.808;7.478;2022-09-30T03:36:57;7.80;99.90
12853;DHT22;6495;51.808;7.478;2022-09-30T03:39:50;7.80;99.90
12853;DHT22;6495;51.808;7.478;2022-09-30T03:42:26;7.80;99.90
12853;DHT22;6495;51.808;7.478;2022-09-30T03:45:01;7.80;99.90
12853;DHT22;6495;51.808;7.478;2022-09-30T03:47:38;7.80;99.90
12853;DHT22;6495;51.808;7.478;2022-09-30T03:50:14;7.80;99.90
12853;DHT22;6495;51.808;7.478;2022-09-30T03:52:50;7.80;99.90
12853;DHT22;6495;51.808;7.478;2022-09-30T03:55:21;7.80;99.90
12853;DHT22;6495;51.808;7.478;2022-09-30T03:57:50;7.80;99.90
12853;DHT22;6495;51.808;7.478;2022-09-30T04:00:20;7.80;99.90
12853;DHT22;6495;51.808;7.478;2022-09-30T04:02:48;7.80;99.90
12853;DHT22;6495;51.808;7.478;2022-09-30T04:05:21;7.80;99.90
12853;DHT22;6495;51.808;7.478;2022-09-30T04:07:49;7.80;99.90
12853;DHT22;6495;51.808;7.478;2022-09-30T04:10:18;7.80;99.90
12853;DHT22;6495;51.808;7.478;2022-09-30T04:12:52;7.80;99.90
12853;DHT22;6495;51.808;7.478;2022-09-30T04:15:33;7.80;99.90
12853;DHT22;6495;51.808;7.478;2022-09-30T04:18:15;7.80;99.90
12853;DHT22;6495;51.808;7.478;2022-09-30T04:21:33;7.80;99.90
12853;DHT22;6495;51.808;7.478;2022-09-30T04:24:59;7.80;99.90
12853;DHT22;6495;51.808;7.478;2022-09-30T04:27:58;7.80;99.90
12853;DHT22;6495;51.808;7.478;2022-09-30T04:30:48;7.70;99.90
12853;DHT22;6495;51.808;7.478;2022-09-30T04:33:58;7.70;99.90
12853;DHT22;6495;51.808;7.478;2022-09-30T04:36:39;7.70;99.90
12853;DHT22;6495;51.808;7.478;2022-09-30T04:39:13;7.70;99.90
12853;DHT22;6495;51.808;7.478;2022-09-30T04:42:25;7.70;99.90
12853;DHT22;6495;51.808;7.478;2022-09-30T04:45:41;7.70;99.90
12853;DHT22;6495;51.808;7.478;2022-09-30T04:48:19;7.70;99.90
12853;DHT22;6495;51.808;7.478;2022-09-30T04:50:51;7.70;99.90
12853;DHT22;6495;51.808;7.478;2022-09-30T04:53:23;7.70;99.90
12853;DHT22;6495;51.808;7.478;2022-09-30T04:55:57;7.70;99.90
12853;DHT22;6495;51.808;7.478;2022-09-30T04:58:28;7.70;99.90
12853;DHT22;6495;51.808;7.478;2022-09-30T05:01:05;7.70;99.90
12853;DHT22;6495;51.808;7.478;2022-09-30T05:03:36;7.70;99.90
12853;DHT22;6495;51.808;7.478;2022-09-30T05:06:12;7.70;99.90
12853;DHT22;6495;51.808;7.478;2022-09-30T05:08:43;7.60;99.90
12853;DHT22;6495;51.808;7.478;2022-09-30T05:11:14;7.60;99.90
12853;DHT22;6495;51.808;7.478;2022-09-30T05:13:45;7.60;99.90
12853;DHT22;6495;51.808;7.478;2022-09-30T05:16:16;7.60;99.90
12853;DHT22;6495;51.808;7.478;2022-09-30T05:18:45;7.60;99.90
12853;DHT22;6495;51.808;7.478;2022-09-30T05:21:15;7.60;99.90
12853;DHT22;6495;51.808;7.478;2022-09-30T05:23:47;7.50;99.90
12853;DHT22;6495;51.808;7.478;2022-09-30T05:26:15;7.50;99.90
12853;DHT22;6495;51.808;7.478;2022-09-30T05:28:43;7.50;99.90
12853;DHT22;6495;51.808;7.478;2022-09-30T05:31:12;7.50;99.90
12853;DHT22;6495;51.808;7.478;2022-09-30T05:33:42;7.50;99.90
12853;DHT22;6495;51.808;7.478;2022-09-30T05:36:13;7.50;99.90
12853;DHT22;6495;51.808;7.478;2022-09-30T05:38:42;7.50;99.90
12853;DHT22;6495;51.808;7.478;2022-09-30T05:41:12;7.50;99.90
12853;DHT22;6495;51.808;7.478;2022-09-30T05:43:42;7.50;99.90
12853;DHT22;6495;51.808;7.478;2022-09-30T05:46:13;7.50;99.90
12853;DHT22;6495;51.808;7.478;2022-09-30T05:48:44;7.40;99.90
12853;DHT22;6495;51.808;7.478;2022-09-30T05:51:13;7.40;99.90
12853;DHT22;6495;51.808;7.478;2022-09-30T05:53:43;7.40;99.90
12853;DHT22;6495;51.808;7.478;2022-09-30T05:56:11;7.40;99.90
12853;DHT22;6495;51.808;7.478;2022-09-30T05:58:40;7.40;99.90
12853;DHT22;6495;51.808;7.478;2022-09-30T06:01:11;7.40;99.90
12853;DHT22;6495;51.808;7.478;2022-09-30T06:03:41;7.40;99.90
12853;DHT22;6495;51.808;7.478;2022-09-30T06:06:12;7.40;99.90
12853;DHT22;6495;51.808;7.478;2022-09-30T06:08:44;7.40;99.90
12853;DHT22;6495;51.808;7.478;2022-09-30T06:11:14;7.40;99.90
12853;DHT22;6495;51.808;7.478;2022-09-30T06:13:45;7.40;99.90
12853;DHT22;6495;51.808;7.478;2022-09-30T06:16:15;7.40;99.90
12853;DHT22;6495;51.808;7.478;2022-09-30T06:18:45;7.40;99.90
12853;DHT22;6495;51.808;7.478;2022-09-30T06:21:15;7.40;99.90
12853;DHT22;6495;51.808;7.478;2022-09-30T06:23:49;7.40;99.90
12853;DHT22;6495;51.808;7.478;2022-09-30T06:26:17;7.40;99.90
12853;DHT22;6495;51.808;7.478;2022-09-30T06:28:46;7.40;99.90
12853;DHT22;6495;51.808;7.478;2022-09-30T06:31:17;7.40;99.90
12853;DHT22;6495;51.808;7.478;2022-09-30T06:33:46;7.50;99.90
12853;DHT22;6495;51.808;7.478;2022-09-30T06:36:15;7.50;99.90
12853;DHT22;6495;51.808;7.478;2022-09-30T06:38:44;7.50;99.90
12853;DHT22;6495;51.808;7.478;2022-09-30T06:41:18;7.50;99.90
12853;DHT22;6495;51.808;7.478;2022-09-30T06:43:47;7.50;99.90
12853;DHT22;6495;51.808;7.478;2022-09-30T06:46:30;7.50;99.90
12853;DHT22;6495;51.808;7.478;2022-09-30T06:48:58;7.50;99.90
12853;DHT22;6495;51.808;7.478;2022-09-30T06:51:40;7.50;99.90
12853;DHT22;6495;51.808;7.478;2022-09-30T06:54:09;7.50;99.90
12853;DHT22;6495;51.808;7.478;2022-09-30T06:56:38;7.50;99.90
12853;DHT22;6495;51.808;7.478;2022-09-30T06:59:06;7.50;99.90
12853;DHT22;6495;51.808;7.478;2022-09-30T07:01:34;7.50;99.90
12853;DHT22;6495;51.808;7.478;2022-09-30T07:04:03;7.50;99.90
12853;DHT22;6495;51.808;7.478;2022-09-30T07:06:36;7.50;99.90
12853;DHT22;6495;51.808;7.478;2022-09-30T07:09:07;7.50;99.90
12853;DHT22;6495;51.808;7.478;2022-09-30T07:11:37;7.50;99.90
12853;DHT22;6495;51.808;7.478;2022-09-30T07:14:06;7.60;99.90
12853;DHT22;6495;51.808;7.478;2022-09-30T07:16:36;7.60;99.90
12853;DHT22;6495;51.808;7.478;2022-09-30T07:19:05;7.60;99.90
12853;DHT22;6495;51.808;7.478;2022-09-30T07:21:34;7.70;99.90
12853;DHT22;6495;51.808;7.478;2022-09-30T07:24:14;7.70;99.90
12853;DHT22;6495;51.808;7.478;2022-09-30T07:26:43;7.80;99.90
12853;DHT22;6495;51.808;7.478;2022-09-30T07:29:12;7.80;99.90
12853;DHT22;6495;51.808;7.478;2022-09-30T07:31:41;7.80;99.90
12853;DHT22;6495;51.808;7.478;2022-09-30T07:34:09;7.90;99.90
12853;DHT22;6495;51.808;7.478;2022-09-30T07:36:39;7.90;99.90
12853;DHT22;6495;51.808;7.478;2022-09-30T07:39:15;8.00;99.90
12853;DHT22;6495;51.808;7.478;2022-09-30T07:41:44;8.00;99.90
12853;DHT22;6495;51.808;7.478;2022-09-30T07:44:17;8.10;99.90
12853;DHT22;6495;51.808;7.478;2022-09-30T07:46:46;8.10;99.90
12853;DHT22;6495;51.808;7.478;2022-09-30T07:49:17;8.20;99.90
12853;DHT22;6495;51.808;7.478;2022-09-30T07:51:53;8.30;99.90
12853;DHT22;6495;51.808;7.478;2022-09-30T07:54:31;8.40;99.90
12853;DHT22;6495;51.808;7.478;2022-09-30T07:57:10;8.50;99.90
12853;DHT22;6495;51.808;7.478;2022-09-30T07:59:43;8.70;99.90
12853;DHT22;6495;51.808;7.478;2022-09-30T08:02:17;8.80;99.90
12853;DHT22;6495;51.808;7.478;2022-09-30T08:04:52;8.90;99.90
12853;DHT22;6495;51.808;7.478;2022-09-30T08:07:28;9.10;99.90
12853;DHT22;6495;51.808;7.478;2022-09-30T08:10:27;9.30;99.90
12853;DHT22;6495;51.808;7.478;2022-09-30T08:13:21;9.50;99.90
12853;DHT22;6495;51.808;7.478;2022-09-30T08:16:08;9.70;99.90
12853;DHT22;6495;51.808;7.478;2022-09-30T08:19:15;9.80;99.90
12853;DHT22;6495;51.808;7.478;2022-09-30T08:22:13;10.00;99.90
12853;DHT22;6495;51.808;7.478;2022-09-30T08:24:56;10.30;99.90
12853;DHT22;6495;51.808;7.478;2022-09-30T08:27:34;10.40;99.90
12853;DHT22;6495;51.808;7.478;2022-09-30T08:30:10;10.60;99.90
12853;DHT22;6495;51.808;7.478;2022-09-30T08:33:05;10.80;99.90
12853;DHT22;6495;51.808;7.478;2022-09-30T08:35:38;11.00;99.90
12853;DHT22;6495;51.808;7.478;2022-09-30T08:38:20;11.10;99.90
12853;DHT22;6495;51.808;7.478;2022-09-30T08:41:17;11.30;99.90
12853;DHT22;6495;51.808;7.478;2022-09-30T08:44:34;11.50;99.90
12853;DHT22;6495;51.808;7.478;2022-09-30T08:47:37;11.70;99.90
12853;DHT22;6495;51.808;7.478;2022-09-30T08:50:55;11.80;99.90
12853;DHT22;6495;51.808;7.478;2022-09-30T08:53:45;12.00;99.90
12853;DHT22;6495;51.808;7.478;2022-09-30T08:57:02;12.20;99.90
12853;DHT22;6495;51.808;7.478;2022-09-30T08:59:57;12.30;99.90
12853;DHT22;6495;51.808;7.478;2022-09-30T09:03:08;12.50;99.90
12853;DHT22;6495;51.808;7.478;2022-09-30T09:06:51;12.70;99.90
12853;DHT22;6495;51.808;7.478;2022-09-30T09:10:11;12.80;99.90
12853;DHT22;6495;51.808;7.478;2022-09-30T09:13:23;13.00;99.90
12853;DHT22;6495;51.808;7.478;2022-09-30T09:17:10;13.10;99.90
12853;DHT22;6495;51.808;7.478;2022-09-30T09:20:14;13.30;99.90
12853;DHT22;6495;51.808;7.478;2022-09-30T09:24:09;13.50;99.90
12853;DHT22;6495;51.808;7.478;2022-09-30T09:31:38;13.80;99.90
12853;DHT22;6495;51.808;7.478;2022-09-30T09:44:40;14.40;99.90
12853;DHT22;6495;51.808;7.478;2022-09-30T09:48:50;14.50;99.90
12853;DHT22;6495;51.808;7.478;2022-09-30T11:28:48;17.40;99.90
12853;DHT22;6495;51.808;7.478;2022-09-30T11:31:30;17.50;99.90
12853;DHT22;6495;51.808;7.478;2022-09-30T11:34:19;17.50;99.90
12853;DHT22;6495;51.808;7.478;2022-09-30T11:37:03;17.50;99.90
12853;DHT22;6495;51.808;7.478;2022-09-30T11:39:54;17.60;99.90
12853;DHT22;6495;51.808;7.478;2022-09-30T11:42:36;17.70;99.90
12853;DHT22;6495;51.808;7.478;2022-09-30T11:45:20;17.80;99.90
12853;DHT22;6495;51.808;7.478;2022-09-30T11:48:16;17.80;99.90
12853;DHT22;6495;51.808;7.478;2022-09-30T11:51:04;17.80;99.90
12853;DHT22;6495;51.808;7.478;2022-09-30T11:53:49;17.80;99.90
12853;DHT22;6495;51.808;7.478;2022-09-30T11:56:37;17.70;99.90
12853;DHT22;6495;51.808;7.478;2022-09-30T11:59:17;17.70;99.90
12853;DHT22;6495;51.808;7.478;2022-09-30T12:01:51;17.60;99.90
12853;DHT22;6495;51.808;7.478;2022-09-30T12:04:25;17.70;99.90
12853;DHT22;6495;51.808;7.478;2022-09-30T12:07:00;17.70;99.90
12853;DHT22;6495;51.808;7.478;2022-09-30T12:09:36;17.70;99.90
12853;DHT22;6495;51.808;7.478;2022-09-30T12:12:09;17.70;99.90
12853;DHT22;6495;51.808;7.478;2022-09-30T12:14:45;17.80;99.90
12853;DHT22;6495;51.808;7.478;2022-09-30T12:17:21;17.80;99.90
12853;DHT22;6495;51.808;7.478;2022-09-30T12:19:55;17.90;99.90
12853;DHT22;6495;51.808;7.478;2022-09-30T12:22:29;17.90;99.90
12853;DHT22;6495;51.808;7.478;2022-09-30T12:25:12;17.90;99.90
12853;DHT22;6495;51.808;7.478;2022-09-30T12:27:47;17.90;99.90
12853;DHT22;6495;51.808;7.478;2022-09-30T12:30:21;17.80;99.90
12853;DHT22;6495;51.808;7.478;2022-09-30T12:39:43;17.90;99.90
12853;DHT22;6495;51.808;7.478;2022-09-30T12:42:46;17.90;99.90
12853;DHT22;6495;51.808;7.478;2022-09-30T12:45:46;17.80;99.90
12853;DHT22;6495;51.808;7.478;2022-09-30T12:48:31;17.80;99.90
12853;DHT22;6495;51.808;7.478;2022-09-30T12:51:03;17.80;99.90
12853;DHT22;6495;51.808;7.478;2022-09-30T12:53:36;17.70;99.90
12853;DHT22;6495;51.808;7.478;2022-09-30T12:56:08;17.60;99.90
12853;DHT22;6495;51.808;7.478;2022-09-30T12:58:42;17.50;99.90
12853;DHT22;6495;51.808;7.478;2022-09-30T13:01:16;17.50;99.90
12853;DHT22;6495;51.808;7.478;2022-09-30T13:03:52;17.50;99.90
12853;DHT22;6495;51.808;7.478;2022-09-30T13:10:24;17.40;99.90
12853;DHT22;6495;51.808;7.478;2022-09-30T13:13:15;17.40;98.90
12853;DHT22;6495;51.808;7.478;2022-09-30T13:15:50;17.20;99.20
12853;DHT22;6495;51.808;7.478;2022-09-30T13:21:28;17.10;99.90
12853;DHT22;6495;51.808;7.478;2022-09-30T13:23:58;17.10;99.90
12853;DHT22;6495;51.808;7.478;2022-09-30T13:26:36;17.20;99.90
12853;DHT22;6495;51.808;7.478;2022-09-30T13:29:32;17.20;99.90
12853;DHT22;6495;51.808;7.478;2022-09-30T13:32:29;17.20;99.90
12853;DHT22;6495;51.808;7.478;2022-09-30T13:35:00;17.30;99.30
12853;DHT22;6495;51.808;7.478;2022-09-30T13:37:35;17.20;99.90
12853;DHT22;6495;51.808;7.478;2022-09-30T13:40:15;17.30;99.90
12853;DHT22;6495;51.808;7.478;2022-09-30T13:43:11;17.30;99.90
12853;DHT22;6495;51.808;7.478;2022-09-30T13:45:46;17.30;99.90
12853;DHT22;6495;51.808;7.478;2022-09-30T13:48:22;17.30;99.90
12853;DHT22;6495;51.808;7.478;2022-09-30T13:50:58;17.30;99.90
12853;DHT22;6495;51.808;7.478;2022-09-30T13:53:33;17.20;99.60
12853;DHT22;6495;51.808;7.478;2022-09-30T13:56:08;17.20;99.90
12853;DHT22;6495;51.808;7.478;2022-09-30T14:02:31;17.30;99.30
12853;DHT22;6495;51.808;7.478;2022-09-30T14:05:31;17.30;99.90
12853;DHT22;6495;51.808;7.478;2022-09-30T14:08:29;17.30;99.90
12853;DHT22;6495;51.808;7.478;2022-09-30T14:11:19;17.40;99.90
12853;DHT22;6495;51.808;7.478;2022-09-30T14:17:29;17.50;98.90
12853;DHT22;6495;51.808;7.478;2022-09-30T14:20:26;17.40;98.90
12853;DHT22;6495;51.808;7.478;2022-09-30T14:23:02;17.40;99.20
12853;DHT22;6495;51.808;7.478;2022-09-30T14:25:38;17.40;99.40
12853;DHT22;6495;51.808;7.478;2022-09-30T14:28:14;17.40;99.20
12853;DHT22;6495;51.808;7.478;2022-09-30T14:30:47;17.50;99.40
12853;DHT22;6495;51.808;7.478;2022-09-30T14:33:29;17.50;99.00
12853;DHT22;6495;51.808;7.478;2022-09-30T14:36:01;17.50;99.00
12853;DHT22;6495;51.808;7.478;2022-09-30T14:38:35;17.60;99.30
12853;DHT22;6495;51.808;7.478;2022-09-30T14:41:07;17.60;98.80
12853;DHT22;6495;51.808;7.478;2022-09-30T14:43:44;17.70;98.70
12853;DHT22;6495;51.808;7.478;2022-09-30T14:46:27;17.70;98.40
12853;DHT22;6495;51.808;7.478;2022-09-30T14:49:01;17.70;98.60
12853;DHT22;6495;51.808;7.478;2022-09-30T14:51:37;17.70;98.60
12853;DHT22;6495;51.808;7.478;2022-09-30T14:54:16;17.70;98.80
12853;DHT22;6495;51.808;7.478;2022-09-30T14:56:48;17.80;98.40
12853;DHT22;6495;51.808;7.478;2022-09-30T14:59:21;17.80;98.40
12853;DHT22;6495;51.808;7.478;2022-09-30T15:01:54;17.90;98.60
12853;DHT22;6495;51.808;7.478;2022-09-30T15:04:28;17.90;98.30
12853;DHT22;6495;51.808;7.478;2022-09-30T15:06:58;17.90;97.70
12853;DHT22;6495;51.808;7.478;2022-09-30T15:09:32;17.80;97.10
12853;DHT22;6495;51.808;7.478;2022-09-30T15:12:06;17.70;96.80
12853;DHT22;6495;51.808;7.478;2022-09-30T15:14:45;17.70;97.10
12853;DHT22;6495;51.808;7.478;2022-09-30T15:17:17;17.60;97.30
12853;DHT22;6495;51.808;7.478;2022-09-30T15:19:46;17.70;97.70
12853;DHT22;6495;51.808;7.478;2022-09-30T15:22:16;17.70;97.80
12853;DHT22;6495;51.808;7.478;2022-09-30T15:24:46;17.70;97.60
12853;DHT22;6495;51.808;7.478;2022-09-30T15:27:20;17.70;97.30
12853;DHT22;6495;51.808;7.478;2022-09-30T15:29:55;17.70;97.60
12853;DHT22;6495;51.808;7.478;2022-09-30T15:32:26;17.70;97.60
12853;DHT22;6495;51.808;7.478;2022-09-30T15:34:56;17.80;97.60
12853;DHT22;6495;51.808;7.478;2022-09-30T15:37:32;17.80;97.40
12853;DHT22;6495;51.808;7.478;2022-09-30T15:40:01;17.80;97.40
12853;DHT22;6495;51.808;7.478;2022-09-30T15:42:54;17.80;96.90
12853;DHT22;6495;51.808;7.478;2022-09-30T15:45:28;17.70;96.60
12853;DHT22;6495;51.808;7.478;2022-09-30T15:48:03;17.70;96.90
12853;DHT22;6495;51.808;7.478;2022-09-30T15:50:38;17.70;97.10
12853;DHT22;6495;51.808;7.478;2022-09-30T15:53:14;17.60;96.80
12853;DHT22;6495;51.808;7.478;2022-09-30T15:55:50;17.50;96.70
12853;DHT22;6495;51.808;7.478;2022-09-30T15:58:33;17.40;96.90
12853;DHT22;6495;51.808;7.478;2022-09-30T16:01:25;17.40;97.00
12853;DHT22;6495;51.808;7.478;2022-09-30T16:04:02;17.40;97.00
12853;DHT22;6495;51.808;7.478;2022-09-30T16:06:41;17.40;97.10
12853;DHT22;6495;51.808;7.478;2022-09-30T16:09:21;17.30;97.00
12853;DHT22;6495;51.808;7.478;2022-09-30T16:12:01;17.30;96.80
12853;DHT22;6495;51.808;7.478;2022-09-30T16:14:38;17.20;96.80
12853;DHT22;6495;51.808;7.478;2022-09-30T16:17:16;17.20;97.00
12853;DHT22;6495;51.808;7.478;2022-09-30T16:19:53;17.20;97.10
12853;DHT22;6495;51.808;7.478;2022-09-30T16:22:48;17.20;97.20
12853;DHT22;6495;51.808;7.478;2022-09-30T16:25:21;17.10;96.90
12853;DHT22;6495;51.808;7.478;2022-09-30T16:27:55;17.10;97.20
12853;DHT22;6495;51.808;7.478;2022-09-30T16:30:27;17.10;97.40
12853;DHT22;6495;51.808;7.478;2022-09-30T16:33:01;17.10;97.40
12853;DHT22;6495;51.808;7.478;2022-09-30T16:35:31;17.10;97.50
12853;DHT22;6495;51.808;7.478;2022-09-30T16:38:02;17.00;97.40
12853;DHT22;6495;51.808;7.478;2022-09-30T16:40:32;17.10;97.60
12853;DHT22;6495;51.808;7.478;2022-09-30T16:43:03;17.10;97.60
12853;DHT22;6495;51.808;7.478;2022-09-30T16:45:35;17.00;97.60
12853;DHT22;6495;51.808;7.478;2022-09-30T16:48:12;17.10;97.70
12853;DHT22;6495;51.808;7.478;2022-09-30T16:50:46;17.10;97.80
12853;DHT22;6495;51.808;7.478;2022-09-30T16:53:17;17.10;97.70
12853;DHT22;6495;51.808;7.478;2022-09-30T16:55:47;17.10;97.80
12853;DHT22;6495;51.808;7.478;2022-09-30T16:58:16;17.00;97.90
12853;DHT22;6495;51.808;7.478;2022-09-30T17:00:45;17.00;97.90
12853;DHT22;6495;51.808;7.478;2022-09-30T17:03:15;17.00;97.90
12853;DHT22;6495;51.808;7.478;2022-09-30T17:05:47;17.00;97.90
12853;DHT22;6495;51.808;7.478;2022-09-30T17:08:19;16.90;97.90
12853;DHT22;6495;51.808;7.478;2022-09-30T17:10:49;16.80;98.00
12853;DHT22;6495;51.808;7.478;2022-09-30T17:13:18;16.80;97.90
12853;DHT22;6495;51.808;7.478;2022-09-30T17:15:49;16.70;97.80
12853;DHT22;6495;51.808;7.478;2022-09-30T17:18:18;16.60;97.80
12853;DHT22;6495;51.808;7.478;2022-09-30T17:20:47;16.50;97.80
12853;DHT22;6495;51.808;7.478;2022-09-30T17:23:19;16.40;97.90
12853;DHT22;6495;51.808;7.478;2022-09-30T17:25:48;16.30;97.90
12853;DHT22;6495;51.808;7.478;2022-09-30T17:28:17;16.30;98.00
12853;DHT22;6495;51.808;7.478;2022-09-30T17:30:45;16.20;98.00
12853;DHT22;6495;51.808;7.478;2022-09-30T17:33:16;16.10;98.10
12853;DHT22;6495;51.808;7.478;2022-09-30T17:35:56;16.10;98.20
12853;DHT22;6495;51.808;7.478;2022-09-30T17:38:26;16.00;98.20
12853;DHT22;6495;51.808;7.478;2022-09-30T17:40:57;15.90;98.30
12853;DHT22;6495;51.808;7.478;2022-09-30T17:43:42;15.90;98.70
12853;DHT22;6495;51.808;7.478;2022-09-30T17:46:11;15.80;98.40
12853;DHT22;6495;51.808;7.478;2022-09-30T17:48:46;15.70;98.50
12853;DHT22;6495;51.808;7.478;2022-09-30T17:51:15;15.60;98.50
12853;DHT22;6495;51.808;7.478;2022-09-30T17:53:44;15.60;98.60
12853;DHT22;6495;51.808;7.478;2022-09-30T17:56:14;15.50;98.70
12853;DHT22;6495;51.808;7.478;2022-09-30T17:58:46;15.40;98.70
12853;DHT22;6495;51.808;7.478;2022-09-30T18:01:17;15.40;98.70
12853;DHT22;6495;51.808;7.478;2022-09-30T18:03:48;15.30;98.70
12853;DHT22;6495;51.808;7.478;2022-09-30T18:06:18;15.20;98.70
12853;DHT22;6495;51.808;7.478;2022-09-30T18:08:47;15.10;98.80
12853;DHT22;6495;51.808;7.478;2022-09-30T18:11:18;15.00;98.90
12853;DHT22;6495;51.808;7.478;2022-09-30T18:13:50;15.00;99.00
12853;DHT22;6495;51.808;7.478;2022-09-30T18:16:21;15.00;99.10
12853;DHT22;6495;51.808;7.478;2022-09-30T18:18:51;15.00;99.20
12853;DHT22;6495;51.808;7.478;2022-09-30T18:21:19;15.00;99.20
12853;DHT22;6495;51.808;7.478;2022-09-30T18:23:49;14.90;99.20
12853;DHT22;6495;51.808;7.478;2022-09-30T18:26:18;15.00;99.30
12853;DHT22;6495;51.808;7.478;2022-09-30T18:28:46;14.90;99.20
12853;DHT22;6495;51.808;7.478;2022-09-30T18:31:17;14.90;99.30
12853;DHT22;6495;51.808;7.478;2022-09-30T18:33:55;14.80;99.30
12853;DHT22;6495;51.808;7.478;2022-09-30T18:36:25;14.80;99.40
12853;DHT22;6495;51.808;7.478;2022-09-30T18:38:55;14.70;99.40
12853;DHT22;6495;51.808;7.478;2022-09-30T18:41:24;14.70;99.50
12853;DHT22;6495;51.808;7.478;2022-09-30T18:43:53;14.70;99.60
12853;DHT22;6495;51.808;7.478;2022-09-30T18:46:25;14.70;99.60
12853;DHT22;6495;51.808;7.478;2022-09-30T18:48:55;14.60;99.60
12853;DHT22;6495;51.808;7.478;2022-09-30T18:51:23;14.60;99.60
12853;DHT22;6495;51.808;7.478;2022-09-30T18:53:52;14.60;99.90
12853;DHT22;6495;51.808;7.478;2022-09-30T18:56:25;14.60;99.80
12853;DHT22;6495;51.808;7.478;2022-09-30T18:58:57;14.50;99.80
12853;DHT22;6495;51.808;7.478;2022-09-30T19:01:26;14.50;99.90
12853;DHT22;6495;51.808;7.478;2022-09-30T19:03:56;14.40;99.90
12853;DHT22;6495;51.808;7.478;2022-09-30T19:06:23;14.40;99.90
12853;DHT22;6495;51.808;7.478;2022-09-30T19:08:51;14.40;99.90
12853;DHT22;6495;51.808;7.478;2022-09-30T19:11:19;14.30;99.90
12853;DHT22;6495;51.808;7.478;2022-09-30T19:13:50;14.30;99.90
12853;DHT22;6495;51.808;7.478;2022-09-30T19:16:21;14.30;99.90
12853;DHT22;6495;51.808;7.478;2022-09-30T19:18:51;14.20;99.90
12853;DHT22;6495;51.808;7.478;2022-09-30T19:21:22;14.20;99.90
12853;DHT22;6495;51.808;7.478;2022-09-30T19:23:50;14.20;99.90